JST523 YSSY-YMML
Flight info
| Callsign | JST523 |
|---|---|
| Flight time | 1h 10m |
| Altitude | 38000 |
| Route | TESAT H65 LEECE Q29 ML |
| Aircraft | A320/M-SDE3FGHIRWY/LB1 |
Departure
| Time | 2026-05-07 07:27 |
|---|---|
| Airport | Sydney Kingsford Smith International Airport (YSSY) |
Arrival
| Time | 2026-05-07 08:37 |
|---|---|
| Airport | Melbourne Airport (YMML) |
| Time | Latitude | Longitude | Altitude | Speed | Heading |
|---|---|---|---|---|---|
| 2026-05-07 06:23 | -33.93563 | 151.17759 | 30 ft | 0 kts | 281° |
| 2026-05-07 07:12 | -33.93567 | 151.17779 | 30 ft | 3 kts | 283° |
| 2026-05-07 07:12 | -33.93572 | 151.17811 | 30 ft | 3 kts | 271° |
| 2026-05-07 07:13 | -33.93569 | 151.17829 | 30 ft | 2 kts | 190° |
| 2026-05-07 07:13 | -33.93587 | 151.17825 | 30 ft | 4 kts | 190° |
| 2026-05-07 07:13 | -33.93610 | 151.17820 | 30 ft | 1 kts | 191° |
| 2026-05-07 07:13 | -33.93611 | 151.17820 | 30 ft | 0 kts | 191° |
| 2026-05-07 07:17 | -33.93641 | 151.17813 | 30 ft | 9 kts | 192° |
| 2026-05-07 07:18 | -33.93719 | 151.17790 | 30 ft | 13 kts | 194° |
| 2026-05-07 07:18 | -33.93809 | 151.17771 | 30 ft | 13 kts | 165° |
| 2026-05-07 07:18 | -33.93817 | 151.17872 | 30 ft | 14 kts | 74° |
| 2026-05-07 07:18 | -33.93788 | 151.17995 | 30 ft | 17 kts | 74° |
| 2026-05-07 07:19 | -33.93755 | 151.18137 | 30 ft | 19 kts | 74° |
| 2026-05-07 07:19 | -33.93717 | 151.18293 | 30 ft | 21 kts | 73° |
| 2026-05-07 07:19 | -33.93675 | 151.18466 | 30 ft | 23 kts | 74° |
| 2026-05-07 07:19 | -33.93633 | 151.18648 | 30 ft | 19 kts | 75° |
| 2026-05-07 07:20 | -33.93600 | 151.18793 | 30 ft | 16 kts | 75° |
| 2026-05-07 07:20 | -33.93595 | 151.18880 | 30 ft | 10 kts | 103° |
| 2026-05-07 07:20 | -33.93644 | 151.18946 | 28 ft | 8 kts | 167° |
| 2026-05-07 07:20 | -33.93659 | 151.18948 | 28 ft | 0 kts | 170° |
| 2026-05-07 07:22 | -33.93660 | 151.18949 | 28 ft | 1 kts | 170° |
| 2026-05-07 07:22 | -33.93664 | 151.18950 | 28 ft | 2 kts | 169° |
| 2026-05-07 07:23 | -33.93666 | 151.18950 | 27 ft | 0 kts | 169° |
| 2026-05-07 07:23 | -33.93669 | 151.18951 | 27 ft | 0 kts | 170° |
| 2026-05-07 07:24 | -33.93670 | 151.18951 | 27 ft | 0 kts | 170° |
| 2026-05-07 07:26 | -33.93676 | 151.18952 | 27 ft | 6 kts | 170° |
| 2026-05-07 07:26 | -33.93756 | 151.18947 | 28 ft | 14 kts | 225° |
| 2026-05-07 07:26 | -33.93798 | 151.18799 | 30 ft | 32 kts | 254° |
| 2026-05-07 07:26 | -33.93918 | 151.18291 | 29 ft | 91 kts | 253° |
| 2026-05-07 07:27 | -33.94134 | 151.17367 | 50 ft | 134 kts | 255° |
| 2026-05-07 07:27 | -33.94381 | 151.16283 | 630 ft | 133 kts | 255° |
| 2026-05-07 07:27 | -33.94620 | 151.15211 | 1355 ft | 132 kts | 251° |
| 2026-05-07 07:27 | -33.94868 | 151.14110 | 1815 ft | 143 kts | 253° |
| 2026-05-07 07:28 | -33.95150 | 151.12867 | 2097 ft | 165 kts | 254° |
| 2026-05-07 07:28 | -33.95378 | 151.11440 | 2371 ft | 186 kts | 257° |
| 2026-05-07 07:28 | -33.95893 | 151.09924 | 2655 ft | 211 kts | 230° |
| 2026-05-07 07:28 | -33.97182 | 151.08938 | 3298 ft | 230 kts | 206° |
| 2026-05-07 07:29 | -33.98661 | 151.08201 | 4287 ft | 231 kts | 206° |
| 2026-05-07 07:29 | -34.00155 | 151.07454 | 5277 ft | 233 kts | 205° |
| 2026-05-07 07:29 | -34.01656 | 151.06701 | 6210 ft | 235 kts | 205° |
| 2026-05-07 07:29 | -34.03171 | 151.05936 | 7082 ft | 238 kts | 205° |
| 2026-05-07 07:30 | -34.04706 | 151.05163 | 7949 ft | 241 kts | 205° |
| 2026-05-07 07:30 | -34.06254 | 151.04378 | 8810 ft | 243 kts | 204° |
| 2026-05-07 07:30 | -34.07807 | 151.03590 | 9646 ft | 246 kts | 203° |
| 2026-05-07 07:30 | -34.09402 | 151.02779 | 10354 ft | 256 kts | 203° |
| 2026-05-07 07:31 | -34.11111 | 151.01909 | 10595 ft | 278 kts | 203° |
| 2026-05-07 07:31 | -34.12970 | 151.00966 | 10788 ft | 300 kts | 203° |
| 2026-05-07 07:31 | -34.14934 | 150.99970 | 11298 ft | 310 kts | 203° |
| 2026-05-07 07:31 | -34.16938 | 150.98953 | 11977 ft | 314 kts | 203° |
| 2026-05-07 07:32 | -34.18965 | 150.97926 | 12650 ft | 318 kts | 203° |
| 2026-05-07 07:32 | -34.21014 | 150.96886 | 13331 ft | 321 kts | 203° |
| 2026-05-07 07:32 | -34.23087 | 150.95831 | 13980 ft | 325 kts | 203° |
| 2026-05-07 07:32 | -34.25180 | 150.94763 | 14579 ft | 329 kts | 203° |
| 2026-05-07 07:33 | -34.27275 | 150.93700 | 15168 ft | 332 kts | 203° |
| 2026-05-07 07:33 | -34.29410 | 150.92622 | 15728 ft | 334 kts | 203° |
| 2026-05-07 07:33 | -34.31564 | 150.91523 | 16254 ft | 339 kts | 202° |
| 2026-05-07 07:33 | -34.33758 | 150.90402 | 16866 ft | 344 kts | 203° |
| 2026-05-07 07:34 | -34.35973 | 150.89270 | 17483 ft | 346 kts | 203° |
| 2026-05-07 07:34 | -34.38219 | 150.88116 | 18106 ft | 354 kts | 203° |
| 2026-05-07 07:34 | -34.40488 | 150.86950 | 18691 ft | 356 kts | 204° |
| 2026-05-07 07:34 | -34.42740 | 150.85796 | 19330 ft | 355 kts | 202° |
| 2026-05-07 07:35 | -34.45015 | 150.84625 | 19991 ft | 355 kts | 202° |
| 2026-05-07 07:35 | -34.47280 | 150.83459 | 20639 ft | 353 kts | 203° |
| 2026-05-07 07:35 | -34.49547 | 150.82290 | 21259 ft | 355 kts | 201° |
| 2026-05-07 07:35 | -34.51814 | 150.81133 | 21903 ft | 353 kts | 201° |
| 2026-05-07 07:36 | -34.54049 | 150.79878 | 22548 ft | 355 kts | 207° |
| 2026-05-07 07:36 | -34.56059 | 150.78128 | 23189 ft | 358 kts | 217° |
| 2026-05-07 07:36 | -34.57748 | 150.75884 | 23716 ft | 366 kts | 226° |
| 2026-05-07 07:36 | -34.59236 | 150.73415 | 24165 ft | 366 kts | 226° |
| 2026-05-07 07:37 | -34.60716 | 150.70942 | 24679 ft | 361 kts | 226° |
| 2026-05-07 07:37 | -34.62190 | 150.68482 | 25074 ft | 361 kts | 227° |
| 2026-05-07 07:37 | -34.63682 | 150.66007 | 25351 ft | 365 kts | 226° |
| 2026-05-07 07:37 | -34.65194 | 150.63518 | 25675 ft | 368 kts | 227° |
| 2026-05-07 07:38 | -34.66712 | 150.61003 | 26006 ft | 368 kts | 227° |
| 2026-05-07 07:38 | -34.68225 | 150.58493 | 26276 ft | 369 kts | 227° |
| 2026-05-07 07:38 | -34.69756 | 150.55953 | 26542 ft | 374 kts | 227° |
| 2026-05-07 07:38 | -34.71297 | 150.53380 | 26856 ft | 380 kts | 228° |
| 2026-05-07 07:39 | -34.72831 | 150.50809 | 27229 ft | 382 kts | 229° |
| 2026-05-07 07:39 | -34.74388 | 150.48185 | 27579 ft | 384 kts | 228° |
| 2026-05-07 07:39 | -34.75961 | 150.45552 | 27823 ft | 384 kts | 228° |
| 2026-05-07 07:39 | -34.77526 | 150.42929 | 28247 ft | 382 kts | 227° |
| 2026-05-07 07:40 | -34.79092 | 150.40309 | 28670 ft | 383 kts | 228° |
| 2026-05-07 07:40 | -34.80659 | 150.37694 | 29185 ft | 381 kts | 228° |
| 2026-05-07 07:40 | -34.82219 | 150.35082 | 29695 ft | 382 kts | 228° |
| 2026-05-07 07:40 | -34.83780 | 150.32469 | 30225 ft | 382 kts | 228° |
| 2026-05-07 07:41 | -34.85342 | 150.29864 | 30652 ft | 381 kts | 228° |
| 2026-05-07 07:41 | -34.86888 | 150.27274 | 31059 ft | 381 kts | 229° |
| 2026-05-07 07:41 | -34.88443 | 150.24668 | 31326 ft | 381 kts | 229° |
| 2026-05-07 07:41 | -34.90008 | 150.22054 | 31622 ft | 384 kts | 229° |
| 2026-05-07 07:42 | -34.91586 | 150.19411 | 31981 ft | 385 kts | 230° |
| 2026-05-07 07:42 | -34.93153 | 150.16767 | 32273 ft | 386 kts | 230° |
| 2026-05-07 07:42 | -34.94720 | 150.14123 | 32696 ft | 384 kts | 230° |
| 2026-05-07 07:42 | -34.96291 | 150.11484 | 33109 ft | 385 kts | 230° |
| 2026-05-07 07:43 | -34.97862 | 150.08841 | 33484 ft | 387 kts | 230° |
| 2026-05-07 07:43 | -34.99447 | 150.06171 | 33793 ft | 390 kts | 231° |
| 2026-05-07 07:43 | -35.01040 | 150.03478 | 34174 ft | 392 kts | 231° |
| 2026-05-07 07:43 | -35.02604 | 150.00822 | 34481 ft | 390 kts | 232° |
| 2026-05-07 07:44 | -35.04191 | 149.98133 | 34726 ft | 390 kts | 232° |
| 2026-05-07 07:44 | -35.05777 | 149.95441 | 34960 ft | 392 kts | 232° |
| 2026-05-07 07:44 | -35.07370 | 149.92742 | 35238 ft | 392 kts | 233° |
| 2026-05-07 07:44 | -35.08951 | 149.90040 | 35465 ft | 391 kts | 233° |
| 2026-05-07 07:45 | -35.10539 | 149.87329 | 35680 ft | 392 kts | 232° |
| 2026-05-07 07:45 | -35.12124 | 149.84637 | 36157 ft | 389 kts | 233° |
| 2026-05-07 07:45 | -35.13691 | 149.81974 | 36453 ft | 386 kts | 233° |
| 2026-05-07 07:45 | -35.15244 | 149.79340 | 36640 ft | 389 kts | 233° |
| 2026-05-07 07:46 | -35.16824 | 149.76658 | 36859 ft | 386 kts | 233° |
| 2026-05-07 07:46 | -35.18384 | 149.73984 | 37049 ft | 387 kts | 234° |
| 2026-05-07 07:46 | -35.19958 | 149.71290 | 37126 ft | 391 kts | 234° |
| 2026-05-07 07:47 | -35.23129 | 149.65900 | 37246 ft | 389 kts | 234° |
| 2026-05-07 07:47 | -35.24706 | 149.63218 | 37497 ft | 389 kts | 234° |
| 2026-05-07 07:47 | -35.26263 | 149.60565 | 37755 ft | 389 kts | 234° |
| 2026-05-07 07:47 | -35.27837 | 149.57877 | 38025 ft | 389 kts | 234° |
| 2026-05-07 07:48 | -35.29414 | 149.55172 | 38129 ft | 392 kts | 234° |
| 2026-05-07 07:48 | -35.32602 | 149.49690 | 38139 ft | 397 kts | 234° |
| 2026-05-07 07:49 | -35.35811 | 149.44165 | 38139 ft | 398 kts | 234° |
| 2026-05-07 07:49 | -35.39020 | 149.38643 | 38140 ft | 398 kts | 234° |
| 2026-05-07 07:50 | -35.42232 | 149.33112 | 38166 ft | 398 kts | 234° |
| 2026-05-07 07:50 | -35.45423 | 149.27623 | 38154 ft | 398 kts | 234° |
| 2026-05-07 07:51 | -35.48635 | 149.22076 | 38155 ft | 398 kts | 234° |
| 2026-05-07 07:51 | -35.51836 | 149.16526 | 38159 ft | 399 kts | 234° |
| 2026-05-07 07:52 | -35.55045 | 149.10973 | 38160 ft | 399 kts | 234° |
| 2026-05-07 07:52 | -35.58227 | 149.05452 | 38163 ft | 399 kts | 234° |
| 2026-05-07 07:53 | -35.61430 | 148.99867 | 38152 ft | 401 kts | 234° |
| 2026-05-07 07:53 | -35.64642 | 148.94261 | 38163 ft | 401 kts | 234° |
| 2026-05-07 07:54 | -35.67862 | 148.88647 | 38177 ft | 402 kts | 234° |
| 2026-05-07 07:54 | -35.71084 | 148.83029 | 38211 ft | 403 kts | 234° |
| 2026-05-07 07:55 | -35.74282 | 148.77421 | 38204 ft | 402 kts | 234° |
| 2026-05-07 07:55 | -35.77496 | 148.71790 | 38191 ft | 401 kts | 234° |
| 2026-05-07 07:56 | -35.80689 | 148.66176 | 38199 ft | 400 kts | 234° |
| 2026-05-07 07:56 | -35.83877 | 148.60557 | 38201 ft | 400 kts | 234° |
| 2026-05-07 07:57 | -35.87041 | 148.54993 | 38243 ft | 398 kts | 234° |
| 2026-05-07 07:57 | -35.90214 | 148.49408 | 38222 ft | 397 kts | 233° |
| 2026-05-07 07:58 | -35.93366 | 148.43812 | 38208 ft | 397 kts | 233° |
| 2026-05-07 07:58 | -35.96498 | 148.38214 | 38193 ft | 396 kts | 234° |
| 2026-05-07 07:59 | -35.99641 | 148.32612 | 38230 ft | 397 kts | 233° |
| 2026-05-07 07:59 | -36.02764 | 148.27069 | 38218 ft | 396 kts | 233° |
| 2026-05-07 08:00 | -36.05889 | 148.21471 | 38205 ft | 396 kts | 233° |
| 2026-05-07 08:00 | -36.09037 | 148.15868 | 38172 ft | 397 kts | 230° |
| 2026-05-07 08:00 | -36.11012 | 148.13553 | 38207 ft | 391 kts | 212° |
| 2026-05-07 08:01 | -36.13452 | 148.12066 | 38209 ft | 392 kts | 203° |
| 2026-05-07 08:01 | -36.18544 | 148.09591 | 38226 ft | 394 kts | 203° |
| 2026-05-07 08:02 | -36.23631 | 148.07148 | 38224 ft | 394 kts | 203° |
| 2026-05-07 08:02 | -36.26039 | 148.05564 | 38206 ft | 393 kts | 217° |
| 2026-05-07 08:02 | -36.27977 | 148.03184 | 38208 ft | 394 kts | 233° |
| 2026-05-07 08:02 | -36.29240 | 148.00165 | 38203 ft | 399 kts | 249° |
| 2026-05-07 08:03 | -36.29818 | 147.96771 | 38205 ft | 406 kts | 256° |
| 2026-05-07 08:03 | -36.30730 | 147.89864 | 38169 ft | 407 kts | 256° |
| 2026-05-07 08:04 | -36.31634 | 147.82975 | 38180 ft | 408 kts | 256° |
| 2026-05-07 08:04 | -36.32585 | 147.76048 | 38174 ft | 405 kts | 251° |
| 2026-05-07 08:05 | -36.34737 | 147.69692 | 38169 ft | 399 kts | 234° |
| 2026-05-07 08:05 | -36.37863 | 147.64014 | 38171 ft | 399 kts | 233° |
| 2026-05-07 08:06 | -36.40995 | 147.58332 | 38225 ft | 404 kts | 233° |
| 2026-05-07 08:06 | -36.44158 | 147.52581 | 38225 ft | 402 kts | 233° |
| 2026-05-07 08:07 | -36.47296 | 147.46855 | 38227 ft | 401 kts | 233° |
| 2026-05-07 08:07 | -36.50449 | 147.41116 | 38220 ft | 400 kts | 233° |
| 2026-05-07 08:08 | -36.53555 | 147.35413 | 38206 ft | 402 kts | 234° |
| 2026-05-07 08:08 | -36.56685 | 147.29658 | 38227 ft | 401 kts | 233° |
| 2026-05-07 08:09 | -36.59812 | 147.23937 | 38224 ft | 399 kts | 233° |
| 2026-05-07 08:09 | -36.62919 | 147.18225 | 38231 ft | 399 kts | 233° |
| 2026-05-07 08:10 | -36.66049 | 147.12485 | 38241 ft | 401 kts | 233° |
| 2026-05-07 08:10 | -36.69153 | 147.06780 | 38242 ft | 401 kts | 233° |
| 2026-05-07 08:11 | -36.72269 | 147.01014 | 38237 ft | 401 kts | 233° |
| 2026-05-07 08:11 | -36.75389 | 146.95238 | 38241 ft | 402 kts | 233° |
| 2026-05-07 08:12 | -36.78504 | 146.89463 | 38239 ft | 401 kts | 233° |
| 2026-05-07 08:12 | -36.81594 | 146.83726 | 38244 ft | 401 kts | 233° |
| 2026-05-07 08:13 | -36.84699 | 146.77955 | 38259 ft | 399 kts | 233° |
| 2026-05-07 08:13 | -36.87779 | 146.72215 | 38256 ft | 398 kts | 234° |
| 2026-05-07 08:14 | -36.90856 | 146.66471 | 38241 ft | 398 kts | 233° |
| 2026-05-07 08:14 | -36.93922 | 146.60730 | 37881 ft | 396 kts | 234° |
| 2026-05-07 08:14 | -36.95428 | 146.57906 | 37610 ft | 396 kts | 234° |
| 2026-05-07 08:15 | -36.96950 | 146.55049 | 37339 ft | 395 kts | 233° |
| 2026-05-07 08:15 | -36.98472 | 146.52189 | 37073 ft | 395 kts | 233° |
| 2026-05-07 08:15 | -36.99995 | 146.49332 | 36812 ft | 394 kts | 233° |
| 2026-05-07 08:15 | -37.01519 | 146.46481 | 36551 ft | 394 kts | 233° |
| 2026-05-07 08:16 | -37.03041 | 146.43631 | 36300 ft | 394 kts | 233° |
| 2026-05-07 08:16 | -37.04560 | 146.40780 | 35948 ft | 394 kts | 233° |
| 2026-05-07 08:16 | -37.06081 | 146.37920 | 35278 ft | 396 kts | 233° |
| 2026-05-07 08:16 | -37.07612 | 146.35034 | 34456 ft | 399 kts | 233° |
| 2026-05-07 08:17 | -37.09144 | 146.32144 | 33588 ft | 395 kts | 233° |
| 2026-05-07 08:17 | -37.10633 | 146.29329 | 32725 ft | 392 kts | 233° |
| 2026-05-07 08:17 | -37.12141 | 146.26484 | 31898 ft | 392 kts | 233° |
| 2026-05-07 08:17 | -37.13654 | 146.23628 | 31096 ft | 393 kts | 233° |
| 2026-05-07 08:18 | -37.15168 | 146.20771 | 30309 ft | 395 kts | 233° |
| 2026-05-07 08:18 | -37.16689 | 146.17900 | 29414 ft | 397 kts | 233° |
| 2026-05-07 08:18 | -37.18215 | 146.15004 | 28546 ft | 398 kts | 234° |
| 2026-05-07 08:18 | -37.19735 | 146.12122 | 27701 ft | 395 kts | 234° |
| 2026-05-07 08:19 | -37.21243 | 146.09265 | 26876 ft | 390 kts | 234° |
| 2026-05-07 08:19 | -37.22708 | 146.06476 | 26086 ft | 386 kts | 234° |
| 2026-05-07 08:19 | -37.24172 | 146.03680 | 25278 ft | 382 kts | 234° |
| 2026-05-07 08:19 | -37.25624 | 146.00908 | 24520 ft | 378 kts | 234° |
| 2026-05-07 08:20 | -37.27061 | 145.98162 | 23777 ft | 374 kts | 234° |
| 2026-05-07 08:20 | -37.28478 | 145.95447 | 22904 ft | 370 kts | 234° |
| 2026-05-07 08:20 | -37.29882 | 145.92757 | 22060 ft | 366 kts | 233° |
| 2026-05-07 08:20 | -37.31271 | 145.90106 | 21321 ft | 361 kts | 233° |
| 2026-05-07 08:21 | -37.32653 | 145.87478 | 21058 ft | 360 kts | 233° |
| 2026-05-07 08:21 | -37.34007 | 145.84910 | 20579 ft | 355 kts | 233° |
| 2026-05-07 08:21 | -37.35361 | 145.82337 | 20001 ft | 351 kts | 233° |
| 2026-05-07 08:21 | -37.36702 | 145.79781 | 19430 ft | 349 kts | 233° |
| 2026-05-07 08:22 | -37.38031 | 145.77250 | 18878 ft | 345 kts | 233° |
| 2026-05-07 08:22 | -37.39342 | 145.74751 | 18327 ft | 341 kts | 232° |
| 2026-05-07 08:22 | -37.40639 | 145.72268 | 17757 ft | 337 kts | 232° |
| 2026-05-07 08:22 | -37.41917 | 145.69816 | 17223 ft | 333 kts | 232° |
| 2026-05-07 08:23 | -37.43177 | 145.67401 | 16672 ft | 328 kts | 232° |
| 2026-05-07 08:23 | -37.44253 | 145.64903 | 16121 ft | 330 kts | 242° |
| 2026-05-07 08:23 | -37.44891 | 145.62112 | 15537 ft | 336 kts | 253° |
| 2026-05-07 08:23 | -37.45030 | 145.59144 | 14940 ft | 344 kts | 263° |
| 2026-05-07 08:24 | -37.44989 | 145.56136 | 14320 ft | 343 kts | 263° |
| 2026-05-07 08:24 | -37.44952 | 145.53140 | 13643 ft | 342 kts | 262° |
| 2026-05-07 08:24 | -37.44918 | 145.50156 | 12987 ft | 340 kts | 262° |
| 2026-05-07 08:24 | -37.44883 | 145.47187 | 12365 ft | 337 kts | 262° |
| 2026-05-07 08:25 | -37.44845 | 145.44249 | 11733 ft | 335 kts | 263° |
| 2026-05-07 08:25 | -37.44809 | 145.41324 | 11113 ft | 333 kts | 263° |
| 2026-05-07 08:25 | -37.44772 | 145.38503 | 10919 ft | 319 kts | 262° |
| 2026-05-07 08:25 | -37.44731 | 145.35776 | 10800 ft | 305 kts | 262° |
| 2026-05-07 08:26 | -37.44658 | 145.30669 | 10556 ft | 280 kts | 262° |
| 2026-05-07 08:26 | -37.44628 | 145.28275 | 10316 ft | 269 kts | 261° |
| 2026-05-07 08:26 | -37.44599 | 145.25971 | 10159 ft | 261 kts | 261° |
| 2026-05-07 08:27 | -37.44576 | 145.23671 | 10076 ft | 264 kts | 261° |
| 2026-05-07 08:27 | -37.44553 | 145.21353 | 9877 ft | 265 kts | 261° |
| 2026-05-07 08:27 | -37.44527 | 145.19040 | 9458 ft | 264 kts | 262° |
| 2026-05-07 08:27 | -37.44500 | 145.16727 | 9077 ft | 265 kts | 262° |
| 2026-05-07 08:28 | -37.44470 | 145.14443 | 8717 ft | 266 kts | 263° |
| 2026-05-07 08:28 | -37.44435 | 145.12133 | 8503 ft | 261 kts | 263° |
| 2026-05-07 08:28 | -37.44399 | 145.09860 | 8105 ft | 258 kts | 264° |
| 2026-05-07 08:28 | -37.44363 | 145.07606 | 7570 ft | 257 kts | 264° |
| 2026-05-07 08:29 | -37.44325 | 145.05407 | 7320 ft | 242 kts | 265° |
| 2026-05-07 08:29 | -37.44290 | 145.03331 | 6963 ft | 233 kts | 265° |
| 2026-05-07 08:29 | -37.44257 | 145.01315 | 6582 ft | 227 kts | 265° |
| 2026-05-07 08:29 | -37.44228 | 144.99359 | 6444 ft | 224 kts | 264° |
| 2026-05-07 08:30 | -37.44201 | 144.97405 | 6294 ft | 223 kts | 264° |
| 2026-05-07 08:30 | -37.44175 | 144.95488 | 6129 ft | 222 kts | 264° |
| 2026-05-07 08:30 | -37.44259 | 144.93573 | 5829 ft | 218 kts | 255° |
| 2026-05-07 08:30 | -37.44537 | 144.91668 | 5400 ft | 222 kts | 255° |
| 2026-05-07 08:31 | -37.44813 | 144.89763 | 4995 ft | 221 kts | 255° |
| 2026-05-07 08:31 | -37.45086 | 144.87862 | 4523 ft | 217 kts | 256° |
| 2026-05-07 08:31 | -37.45341 | 144.86049 | 4329 ft | 202 kts | 256° |
| 2026-05-07 08:31 | -37.45574 | 144.84377 | 4218 ft | 189 kts | 256° |
| 2026-05-07 08:32 | -37.45802 | 144.82749 | 4123 ft | 188 kts | 256° |
| 2026-05-07 08:32 | -37.46132 | 144.81177 | 4039 ft | 184 kts | 237° |
| 2026-05-07 08:32 | -37.47105 | 144.80212 | 3927 ft | 184 kts | 197° |
| 2026-05-07 08:32 | -37.48365 | 144.80352 | 3809 ft | 186 kts | 174° |
| 2026-05-07 08:33 | -37.49622 | 144.80598 | 3610 ft | 182 kts | 179° |
| 2026-05-07 08:33 | -37.50875 | 144.80812 | 3370 ft | 182 kts | 178° |
| 2026-05-07 08:33 | -37.52127 | 144.81038 | 3126 ft | 183 kts | 178° |
| 2026-05-07 08:33 | -37.53386 | 144.81271 | 2898 ft | 182 kts | 178° |
| 2026-05-07 08:34 | -37.54588 | 144.81497 | 2644 ft | 168 kts | 179° |
| 2026-05-07 08:34 | -37.55700 | 144.81705 | 2409 ft | 156 kts | 179° |
| 2026-05-07 08:34 | -37.56742 | 144.81899 | 2201 ft | 148 kts | 179° |
| 2026-05-07 08:34 | -37.57738 | 144.82083 | 2002 ft | 141 kts | 180° |
| 2026-05-07 08:35 | -37.58689 | 144.82259 | 1808 ft | 139 kts | 179° |
| 2026-05-07 08:35 | -37.59647 | 144.82435 | 1646 ft | 140 kts | 178° |
| 2026-05-07 08:35 | -37.60617 | 144.82614 | 1418 ft | 143 kts | 178° |
| 2026-05-07 08:35 | -37.61588 | 144.82796 | 1234 ft | 140 kts | 176° |
| 2026-05-07 08:36 | -37.62540 | 144.82973 | 1033 ft | 139 kts | 177° |
| 2026-05-07 08:36 | -37.63494 | 144.83151 | 830 ft | 138 kts | 179° |
| 2026-05-07 08:36 | -37.64433 | 144.83321 | 656 ft | 136 kts | 177° |
| 2026-05-07 08:36 | -37.65370 | 144.83501 | 503 ft | 137 kts | 175° |
| 2026-05-07 08:37 | -37.66257 | 144.83667 | 407 ft | 117 kts | 175° |
| 2026-05-07 08:37 | -37.66905 | 144.83787 | 390 ft | 70 kts | 172° |
| 2026-05-07 08:37 | -37.67282 | 144.83859 | 376 ft | 48 kts | 172° |
| 2026-05-07 08:37 | -37.67565 | 144.83915 | 370 ft | 31 kts | 173° |
| 2026-05-07 08:38 | -37.67760 | 144.83955 | 359 ft | 24 kts | 172° |
| 2026-05-07 08:38 | -37.67871 | 144.84053 | 364 ft | 20 kts | 107° |
| 2026-05-07 08:38 | -37.67863 | 144.84205 | 360 ft | 17 kts | 81° |
| 2026-05-07 08:38 | -37.67844 | 144.84358 | 366 ft | 18 kts | 81° |
| 2026-05-07 08:39 | -37.67826 | 144.84519 | 365 ft | 19 kts | 82° |
| 2026-05-07 08:39 | -37.67783 | 144.84596 | 368 ft | 9 kts | 8° |
| 2026-05-07 08:39 | -37.67728 | 144.84608 | 371 ft | 8 kts | 13° |
| 2026-05-07 08:39 | -37.67684 | 144.84635 | 373 ft | 7 kts | 35° |
| 2026-05-07 08:40 | -37.67652 | 144.84664 | 374 ft | 2 kts | 38° |
| 2026-05-07 08:40 | -37.67651 | 144.84666 | 374 ft | 0 kts | 38° |